Startpagina
METAR-TAF:

METAR-TAF

Vliegvelden :

Kristianstad Österlen Airport

Kristianstad, Zweden

breedte: 55-55N, lengte: 014-05E, hoogte: 23 m

Actueel weer

Dit bericht is 10 minuten geleden gemaakt, om 18:20 UTC
Wind 15 kt uit het zuidwesten met uitschieters tot 25 kt
Temperatuur 7°C
Vochtigheid 76%
Druk 1003 hPa
Zicht 10 km of meer
Weinig wolken op 3400 ft
Gebroken wolken op 5700 ft

METAR: ESMK 171820Z 23015G25KT 9999 FEW034 BKN057 07/03 Q1003

Tijdstip: 19:30 (18:30 UTC)

Verwachting

Dit bericht is 1 uur en het 17 minuten geleden gemaakt, om 17:13 UTC
Verwachting geldig van 17 om 18 UTC tot 17 om 20 UTC
Wind 15 kt uit het westzuidwesten
Zicht 10 km of meer
Gebroken wolken op 3000 ft
Tijdelijke
van 17 om 18 UTC tot 17 om 20 UTC
Wind 20 kt uit het westzuidwesten met uitschieters tot 30 kt
Verspreide wolken op 2000 ft, Cumulonimbus.
regenbuien

TAF: ESMK 171713Z 1718/1720 24015KT 9999 BKN030 TEMPO 1718/1720 24020G30KT SHRA SCT020CB

Waarnemingen en weersverwachtingen van meer dan 4000 vliegvelden (METAR en TAF).

De beschikbare stations zijn de gele en rode punten op de kaart.

Ga met uw muis naar het station om de naam te zien.

Klik dan om waarnemingen en weersverwachtingen te zien.

kaart wijzigen: klik op de groene knoppen met een zwart kruis om in te zoomen, op de groene knop met een streepje om uit te zoomen of op de groene pijlen voor aangrenzende kaarten.


METAR-TAF: